createdAt,value
2019-04-01T00:01:34.906Z,3.55
2019-04-01T00:04:36.969Z,3.50
2019-04-01T00:07:38.868Z,3.45
2019-04-01T00:10:40.782Z,3.40
2019-04-01T00:13:44.506Z,3.33
2019-04-01T00:16:46.419Z,3.29
2019-04-01T00:19:48.347Z,3.27
2019-04-01T00:22:50.445Z,3.25
2019-04-01T00:25:52.423Z,3.21
2019-04-01T00:28:54.333Z,3.20
2019-04-01T00:31:56.224Z,3.15
2019-04-01T00:34:58.189Z,3.09
2019-04-01T00:38:00.120Z,3.06
2019-04-01T00:41:02.127Z,3.04
2019-04-01T00:44:08.629Z,3.00
2019-04-01T00:47:10.588Z,2.96
2019-04-01T00:50:12.466Z,2.92
2019-04-01T00:53:17.795Z,2.92
2019-04-01T00:56:18.139Z,2.89
2019-04-01T00:59:20.070Z,2.88
2019-04-01T01:02:21.927Z,2.90
2019-04-01T01:05:23.967Z,2.91
2019-04-01T01:08:25.930Z,2.90
2019-04-01T01:11:28.215Z,2.93
2019-04-01T01:14:30.121Z,2.96
2019-04-01T01:17:32.023Z,2.98
2019-04-01T01:20:34.030Z,2.97
2019-04-01T01:23:35.867Z,2.97
2019-04-01T01:26:38.762Z,2.95
2019-04-01T01:29:40.649Z,2.93
2019-04-01T01:32:42.512Z,2.90
2019-04-01T01:35:44.423Z,2.86
2019-04-01T01:38:46.307Z,2.83
2019-04-01T01:41:48.187Z,2.78
2019-04-01T01:44:50.035Z,2.74
2019-04-01T01:47:51.935Z,2.73
2019-04-01T01:50:54.043Z,2.69
2019-04-01T01:53:55.949Z,2.69
2019-04-01T01:56:57.822Z,2.71
2019-04-01T01:59:59.790Z,2.73
2019-04-01T02:03:01.652Z,2.74
2019-04-01T02:06:03.620Z,2.75
2019-04-01T02:09:06.822Z,2.71
2019-04-01T02:12:09.218Z,2.67
2019-04-01T02:15:11.124Z,2.60
2019-04-01T02:18:13.032Z,2.50
2019-04-01T02:21:14.932Z,2.40
2019-04-01T02:24:16.836Z,2.33
2019-04-01T02:27:18.708Z,2.24
2019-04-01T02:30:20.562Z,2.16
2019-04-01T02:33:22.407Z,2.10
2019-04-01T02:36:24.304Z,2.01
2019-04-01T02:39:26.309Z,1.96
2019-04-01T02:42:28.222Z,1.90
2019-04-01T02:45:30.148Z,1.84
2019-04-01T02:48:32.076Z,1.78
2019-04-01T02:51:34.038Z,1.71
2019-04-01T02:54:35.918Z,1.65
2019-04-01T02:57:37.850Z,1.60
2019-04-01T03:00:39.715Z,1.56
2019-04-01T03:03:41.628Z,1.49
2019-04-01T03:06:43.539Z,1.43
2019-04-01T03:09:45.542Z,1.39
2019-04-01T03:12:47.725Z,1.33
2019-04-01T03:15:49.773Z,1.31
2019-04-01T03:18:51.671Z,1.28
2019-04-01T03:21:53.547Z,1.29
2019-04-01T03:24:55.399Z,1.27
2019-04-01T03:27:57.297Z,1.22
2019-04-01T03:30:59.144Z,1.19
2019-04-01T03:34:01.075Z,1.12
2019-04-01T03:37:03.001Z,1.09
2019-04-01T03:40:05.485Z,1.03
2019-04-01T03:43:07.492Z,0.98
2019-04-01T03:46:09.402Z,0.96
2019-04-01T03:49:11.276Z,0.93
2019-04-01T03:52:13.229Z,0.86
2019-04-01T03:55:16.084Z,0.81
2019-04-01T03:58:17.991Z,0.75
2019-04-01T04:01:19.871Z,0.71
2019-04-01T04:04:21.812Z,0.65
2019-04-01T04:07:23.776Z,0.60
2019-04-01T04:10:25.820Z,0.55
2019-04-01T04:13:27.857Z,0.53
2019-04-01T04:16:29.816Z,0.54
2019-04-01T04:19:31.660Z,0.53
2019-04-01T04:22:33.627Z,0.50
2019-04-01T04:25:35.509Z,0.48
2019-04-01T04:28:37.499Z,0.50
2019-04-01T04:31:40.390Z,0.50
2019-04-01T04:34:42.353Z,0.49
2019-04-01T04:37:44.396Z,0.50
2019-04-01T04:40:46.354Z,0.53
2019-04-01T04:43:48.341Z,0.62
2019-04-01T04:46:50.264Z,0.66
2019-04-01T04:49:52.186Z,0.73
2019-04-01T04:52:54.180Z,0.78
2019-04-01T04:55:56.104Z,0.88
2019-04-01T04:58:59.378Z,0.98
2019-04-01T05:02:01.465Z,1.08
2019-04-01T05:05:05.441Z,1.25
2019-04-01T05:08:07.441Z,2.46
2019-04-01T05:11:09.425Z,3.96
2019-04-01T05:14:11.660Z,5.29
2019-04-01T05:17:13.679Z,6.35
2019-04-01T05:20:16.624Z,7.28
2019-04-01T05:23:20.463Z,8.12
2019-04-01T05:26:24.153Z,8.71
2019-04-01T05:29:29.562Z,9.36
2019-04-01T05:32:33.293Z,9.77
2019-04-01T05:35:35.472Z,9.90
2019-04-01T05:38:37.515Z,10.19
2019-04-01T05:41:39.514Z,10.61
2019-04-01T05:44:41.557Z,10.96
2019-04-01T05:47:45.340Z,11.34
2019-04-01T05:50:47.305Z,11.60
2019-04-01T05:53:49.310Z,11.45
2019-04-01T05:56:51.438Z,10.98
2019-04-01T05:59:53.443Z,11.11
2019-04-01T06:02:55.384Z,11.59
2019-04-01T06:05:58.189Z,12.15
2019-04-01T06:09:00.131Z,12.38
2019-04-01T06:12:02.249Z,12.38
2019-04-01T06:15:05.338Z,12.52
2019-04-01T06:18:07.306Z,12.47
2019-04-01T06:21:10.129Z,12.26
2019-04-01T06:24:12.590Z,12.26
2019-04-01T06:27:15.005Z,12.31
2019-04-01T06:30:17.785Z,12.44
2019-04-01T06:33:19.746Z,12.83
2019-04-01T06:36:21.842Z,13.04
2019-04-01T06:39:23.798Z,13.21
2019-04-01T06:42:25.787Z,12.97
2019-04-01T06:45:27.839Z,12.81
2019-04-01T06:48:30.578Z,12.73
2019-04-01T06:51:32.884Z,12.74
2019-04-01T06:54:34.925Z,13.02
2019-04-01T06:57:36.789Z,13.17
2019-04-01T07:00:38.842Z,13.52
2019-04-01T07:03:40.856Z,13.61
2019-04-01T07:06:43.654Z,13.67
2019-04-01T07:09:45.590Z,13.73
2019-04-01T07:12:49.499Z,13.73
2019-04-01T07:15:51.475Z,13.92
2019-04-01T07:18:53.468Z,14.20
2019-04-01T07:21:55.590Z,13.92
2019-04-01T07:24:57.544Z,13.98
2019-04-01T07:27:59.511Z,14.16
2019-04-01T07:31:01.716Z,14.07
2019-04-01T07:34:03.734Z,14.25
2019-04-01T07:37:06.005Z,14.34
2019-04-01T07:40:08.449Z,13.94
2019-04-01T07:43:10.472Z,13.77
2019-04-01T07:46:12.466Z,13.95
2019-04-01T07:49:14.938Z,13.99
2019-04-01T07:52:17.002Z,13.89
2019-04-01T07:55:18.915Z,14.01
2019-04-01T07:58:20.886Z,13.67
2019-04-01T08:01:22.825Z,13.45
2019-04-01T08:04:24.764Z,13.10
2019-04-01T08:07:26.800Z,12.78
2019-04-01T08:10:28.768Z,12.59
2019-04-01T08:13:30.756Z,12.25
2019-04-01T08:16:32.792Z,12.01
2019-04-01T08:19:34.691Z,11.46
2019-04-01T08:22:36.857Z,11.40
2019-04-01T08:25:38.750Z,11.03
2019-04-01T08:28:41.885Z,10.92
2019-04-01T08:31:43.796Z,10.82
2019-04-01T08:34:46.979Z,10.91
2019-04-01T08:37:49.245Z,10.88
2019-04-01T08:40:51.234Z,10.71
2019-04-01T08:43:53.163Z,10.64
2019-04-01T08:46:55.082Z,10.43
2019-04-01T08:49:57.032Z,10.25
2019-04-01T08:52:59.115Z,10.29
2019-04-01T08:56:02.146Z,10.28
2019-04-01T08:59:04.200Z,10.09
2019-04-01T09:02:17.041Z,10.12
2019-04-01T09:05:10.121Z,10.15
2019-04-01T09:08:12.085Z,10.18
2019-04-01T09:11:15.593Z,10.09
2019-04-01T09:14:17.784Z,10.00
2019-04-01T09:17:19.879Z,9.86
2019-04-01T09:20:21.857Z,9.80
2019-04-01T09:23:24.036Z,9.90
2019-04-01T09:26:25.955Z,9.81
2019-04-01T09:29:28.042Z,9.76
2019-04-01T09:32:30.002Z,9.63
2019-04-01T09:35:31.991Z,9.65
2019-04-01T09:38:34.091Z,9.64
2019-04-01T09:41:36.124Z,9.53
2019-04-01T09:44:38.075Z,9.55
2019-04-01T09:47:40.031Z,9.59
2019-04-01T09:50:41.984Z,9.61
2019-04-01T09:53:44.104Z,9.72
2019-04-01T09:56:46.089Z,9.66
2019-04-01T09:59:48.077Z,9.61
2019-04-01T10:02:50.029Z,9.64
2019-04-01T10:05:51.996Z,9.60
2019-04-01T10:08:53.993Z,9.58
2019-04-01T10:11:55.947Z,9.49
2019-04-01T10:14:57.957Z,9.51
2019-04-01T10:17:59.981Z,9.58
2019-04-01T10:21:01.900Z,9.64
2019-04-01T10:24:03.988Z,9.47
2019-04-01T10:27:07.595Z,9.51
2019-04-01T10:30:11.320Z,9.48
2019-04-01T10:33:13.378Z,9.62
2019-04-01T10:36:15.437Z,9.69
2019-04-01T10:39:17.396Z,9.60
2019-04-01T10:42:19.380Z,9.58
2019-04-01T10:45:21.426Z,9.65
2019-04-01T10:48:23.365Z,9.67
2019-04-01T10:51:25.504Z,9.82
2019-04-01T10:54:27.532Z,9.90
2019-04-01T10:57:29.565Z,9.84
2019-04-01T11:00:31.622Z,9.81
2019-04-01T11:03:34.794Z,9.91
2019-04-01T11:06:37.916Z,9.84
2019-04-01T11:09:39.881Z,9.88
2019-04-01T11:12:41.821Z,9.94
2019-04-01T11:15:43.828Z,9.91
2019-04-01T11:18:45.784Z,9.96
2019-04-01T11:21:47.713Z,9.98
2019-04-01T11:24:49.872Z,10.04
2019-04-01T11:27:59.033Z,10.14
2019-04-01T11:31:01.067Z,10.18
2019-04-01T11:34:03.256Z,10.24
2019-04-01T11:37:05.325Z,10.21
2019-04-01T11:40:11.262Z,10.19
2019-04-01T11:43:12.478Z,10.22
2019-04-01T11:46:14.512Z,10.19
2019-04-01T11:49:16.569Z,10.19
2019-04-01T11:52:18.507Z,10.22
2019-04-01T11:55:20.667Z,10.25
2019-04-01T11:58:22.580Z,10.33
2019-04-01T12:01:24.583Z,10.38
2019-04-01T12:04:26.598Z,10.50
2019-04-01T12:07:28.560Z,10.48
2019-04-01T12:10:30.560Z,10.52
2019-04-01T12:13:32.557Z,10.51
2019-04-01T12:16:34.519Z,10.44
2019-04-01T12:19:36.576Z,10.48
2019-04-01T12:22:38.558Z,10.56
2019-04-01T12:25:40.787Z,10.54
2019-04-01T12:28:43.623Z,10.65
2019-04-01T12:31:46.050Z,10.55
2019-04-01T12:34:48.076Z,10.65
2019-04-01T12:37:50.083Z,10.62
2019-04-01T12:40:52.051Z,10.70
2019-04-01T12:43:54.075Z,10.77
2019-04-01T12:46:56.035Z,10.73
2019-04-01T12:49:58.084Z,10.84
2019-04-01T12:53:00.068Z,10.82
2019-04-01T12:56:02.103Z,10.76
2019-04-01T12:59:04.035Z,10.80
2019-04-01T13:02:06.042Z,10.77
2019-04-01T13:05:09.267Z,10.78
2019-04-01T13:08:11.450Z,10.83
2019-04-01T13:11:13.476Z,10.76
2019-04-01T13:14:15.522Z,10.81
2019-04-01T13:17:17.444Z,10.85
2019-04-01T13:20:19.409Z,10.81
2019-04-01T13:23:21.412Z,10.83
2019-04-01T13:26:26.327Z,10.88
2019-04-01T13:29:28.884Z,10.79
2019-04-01T13:32:30.891Z,10.90
2019-04-01T13:35:32.873Z,11.00
2019-04-01T13:38:34.883Z,11.00
2019-04-01T13:41:42.515Z,11.03
2019-04-01T13:44:40.765Z,11.07
2019-04-01T13:47:42.760Z,11.00
2019-04-01T13:50:44.767Z,10.95
2019-04-01T13:53:46.680Z,10.91
2019-04-01T13:56:48.739Z,10.90
2019-04-01T13:59:52.166Z,10.87
2019-04-01T14:02:54.198Z,10.86
2019-04-01T14:05:56.197Z,10.88
2019-04-01T14:09:00.449Z,10.85
2019-04-01T14:12:02.053Z,10.81
2019-04-01T14:15:06.693Z,10.80
2019-04-01T14:18:08.629Z,10.74
2019-04-01T14:21:16.621Z,10.87
2019-04-01T14:24:15.242Z,10.85
2019-04-01T14:27:18.402Z,10.82
2019-04-01T14:30:21.006Z,10.79
2019-04-01T14:33:22.918Z,10.81
2019-04-01T14:36:24.878Z,10.68
2019-04-01T14:39:26.907Z,10.72
2019-04-01T14:42:28.907Z,10.82
2019-04-01T14:45:30.925Z,10.81
2019-04-01T14:48:32.899Z,10.84
2019-04-01T14:51:34.990Z,10.80
2019-04-01T14:54:37.314Z,10.82
2019-04-01T14:57:39.447Z,10.74
2019-04-01T15:00:41.390Z,10.69
2019-04-01T15:03:43.404Z,10.64
2019-04-01T15:06:45.550Z,10.66
2019-04-01T15:09:47.641Z,10.61
2019-04-01T15:13:04.084Z,10.63
2019-04-01T15:15:53.490Z,10.61
2019-04-01T15:18:55.418Z,10.58
2019-04-01T15:21:57.524Z,10.52
2019-04-01T15:24:59.524Z,10.49
2019-04-01T15:28:02.461Z,10.49
2019-04-01T15:31:05.040Z,10.47
2019-04-01T15:34:09.283Z,10.43
2019-04-01T15:37:11.770Z,10.40
2019-04-01T15:40:13.824Z,10.30
2019-04-01T15:43:15.764Z,10.29
2019-04-01T15:46:19.027Z,10.30
2019-04-01T15:49:21.002Z,10.32
2019-04-01T15:52:23.002Z,10.29
2019-04-01T15:55:24.944Z,10.28
2019-04-01T15:58:27.037Z,10.20
2019-04-01T16:01:30.107Z,10.13
2019-04-01T16:04:32.398Z,10.13
2019-04-01T16:07:34.339Z,10.08
2019-04-01T16:10:36.289Z,10.04
2019-04-01T16:13:38.191Z,9.98
2019-04-01T16:16:40.116Z,9.90
2019-04-01T16:19:43.242Z,9.83
2019-04-01T16:22:46.504Z,9.81
2019-04-01T16:25:48.790Z,9.76
2019-04-01T16:28:50.937Z,9.68
2019-04-01T16:31:55.400Z,9.63
2019-04-01T16:34:57.221Z,9.60
2019-04-01T16:37:59.573Z,9.53
2019-04-01T16:41:04.012Z,9.44
2019-04-01T16:44:05.986Z,9.35
2019-04-01T16:47:08.106Z,9.30
2019-04-01T16:50:10.394Z,9.24
2019-04-01T16:53:23.218Z,9.15
2019-04-01T16:56:27.080Z,9.07
2019-04-01T16:59:29.148Z,9.06
2019-04-01T17:02:32.876Z,9.30
2019-04-01T17:05:34.993Z,9.25
2019-04-01T17:08:36.902Z,9.01
2019-04-01T17:11:42.837Z,8.81
2019-04-01T17:14:45.894Z,8.66
2019-04-01T17:17:48.424Z,8.49
2019-04-01T17:20:50.446Z,8.36
2019-04-01T17:23:52.436Z,8.23
2019-04-01T17:27:06.858Z,8.14
2019-04-01T17:30:10.874Z,8.03
2019-04-01T17:33:14.117Z,7.89
2019-04-01T17:36:16.904Z,7.79
2019-04-01T17:39:18.862Z,7.68
2019-04-01T17:42:21.160Z,7.56
2019-04-01T17:45:26.686Z,7.50
2019-04-01T17:48:33.136Z,7.44
2019-04-01T17:51:35.192Z,7.36
2019-04-01T17:54:39.906Z,7.29
2019-04-01T17:57:41.013Z,7.23
2019-04-01T18:00:48.168Z,7.13
2019-04-01T18:03:50.192Z,7.06
2019-04-01T18:06:52.168Z,6.98
2019-04-01T18:09:54.570Z,6.97
2019-04-01T18:12:57.111Z,6.90
2019-04-01T18:15:59.438Z,6.84
2019-04-01T18:19:01.351Z,6.77
2019-04-01T18:22:04.016Z,6.70
2019-04-01T18:25:08.090Z,6.65
2019-04-01T18:28:10.120Z,6.58
2019-04-01T18:31:12.246Z,6.49
2019-04-01T18:34:14.314Z,6.43
2019-04-01T18:37:16.723Z,6.35
2019-04-01T18:40:31.979Z,6.28
2019-04-01T18:43:23.368Z,6.19
2019-04-01T18:46:25.536Z,6.12
2019-04-01T18:49:29.348Z,6.05
2019-04-01T18:52:31.311Z,5.95
2019-04-01T18:55:33.491Z,5.89
2019-04-01T18:58:36.127Z,5.81
2019-04-01T19:01:39.550Z,5.73
2019-04-01T19:04:44.785Z,5.66
2019-04-01T19:07:46.747Z,5.57
2019-04-01T19:11:01.470Z,5.52
2019-04-01T19:13:52.602Z,5.46
2019-04-01T19:16:58.878Z,5.40
2019-04-01T19:20:03.041Z,5.34
2019-04-01T19:23:04.997Z,5.30
2019-04-01T19:26:09.984Z,5.26
2019-04-01T19:29:11.246Z,5.20
2019-04-01T19:32:14.832Z,5.13
2019-04-01T19:35:17.401Z,5.05
2019-04-01T19:38:25.228Z,4.98
2019-04-01T19:41:29.113Z,4.93
2019-04-01T19:44:31.132Z,4.89
2019-04-01T19:47:33.189Z,4.83
2019-04-01T19:50:36.744Z,4.79
2019-04-01T19:53:39.207Z,4.78
2019-04-01T19:56:41.444Z,4.73
2019-04-01T19:59:47.497Z,4.67
2019-04-01T20:02:52.807Z,4.64
2019-04-01T20:05:54.843Z,4.58
2019-04-01T20:08:59.222Z,4.55
2019-04-01T20:12:01.370Z,4.49
2019-04-01T20:15:11.950Z,4.41
2019-04-01T20:18:16.555Z,4.36
2019-04-01T20:21:18.592Z,4.29
2019-04-01T20:24:20.643Z,4.20
2019-04-01T20:27:25.094Z,4.16
2019-04-01T20:30:26.999Z,4.09
2019-04-01T20:33:31.706Z,4.02
2019-04-01T20:36:33.461Z,3.97
2019-04-01T20:39:35.395Z,3.94
2019-04-01T20:42:37.381Z,3.96
2019-04-01T20:45:39.311Z,3.92
2019-04-01T20:48:41.273Z,3.89
2019-04-01T20:51:43.277Z,3.91
2019-04-01T20:54:45.630Z,3.95
2019-04-01T20:57:47.566Z,3.97
2019-04-01T21:00:49.534Z,3.95
2019-04-01T21:03:51.572Z,4.00
2019-04-01T21:06:53.548Z,4.05
2019-04-01T21:09:55.530Z,4.03
2019-04-01T21:12:57.493Z,4.02
2019-04-01T21:15:59.658Z,3.98
2019-04-01T21:19:01.757Z,4.01
2019-04-01T21:22:05.066Z,4.04
2019-04-01T21:25:07.634Z,4.00
2019-04-01T21:28:09.629Z,3.97
2019-04-01T21:31:12.726Z,3.93
2019-04-01T21:34:16.031Z,3.91
2019-04-01T21:37:18.026Z,3.91
2019-04-01T21:40:19.943Z,3.93
2019-04-01T21:43:21.902Z,3.91
2019-04-01T21:46:23.826Z,3.85
2019-04-01T21:49:25.720Z,3.83
2019-04-01T21:52:27.704Z,3.80
2019-04-01T21:55:30.714Z,3.75
2019-04-01T21:58:32.757Z,3.75
2019-04-01T22:01:34.671Z,3.69
2019-04-01T22:04:36.752Z,3.67
2019-04-01T22:07:38.738Z,3.63
2019-04-01T22:10:40.786Z,3.62
2019-04-01T22:13:42.749Z,3.54
2019-04-01T22:16:45.119Z,3.57
2019-04-01T22:19:47.979Z,3.50
2019-04-01T22:22:49.904Z,3.49
2019-04-01T22:25:51.869Z,3.47
2019-04-01T22:28:53.834Z,3.45
2019-04-01T22:31:55.749Z,3.40
2019-04-01T22:34:57.890Z,3.42
2019-04-01T22:38:03.280Z,3.41
2019-04-01T22:41:04.397Z,3.37
2019-04-01T22:44:06.341Z,3.35
2019-04-01T22:47:08.222Z,3.32
2019-04-01T22:50:10.726Z,3.33
2019-04-01T22:53:12.833Z,3.30
2019-04-01T22:56:14.787Z,3.30
2019-04-01T22:59:16.707Z,3.30
2019-04-01T23:02:18.631Z,3.28
2019-04-01T23:05:20.675Z,3.24
2019-04-01T23:08:22.639Z,3.19
2019-04-01T23:11:25.119Z,3.14
2019-04-01T23:14:27.303Z,3.09
2019-04-01T23:17:29.220Z,3.05
2019-04-01T23:20:31.189Z,3.02
2019-04-01T23:23:34.067Z,3.00
2019-04-01T23:26:35.984Z,2.99
2019-04-01T23:29:37.892Z,2.98
2019-04-01T23:32:41.826Z,2.95
2019-04-01T23:35:43.821Z,2.90
2019-04-01T23:38:45.755Z,2.86
2019-04-01T23:41:47.644Z,2.77
2019-04-01T23:44:52.106Z,2.73
2019-04-01T23:47:54.303Z,2.72
2019-04-01T23:50:56.284Z,2.72
2019-04-01T23:53:58.241Z,2.68
2019-04-01T23:57:00.231Z,2.66
